createdAt,value
2023-02-11T00:02:59.676Z,40.97
2023-02-11T00:08:01.014Z,41.40
2023-02-11T00:13:02.268Z,41.33
2023-02-11T00:18:03.593Z,40.17
2023-02-11T00:23:05.009Z,43.83
2023-02-11T00:28:06.373Z,45.03
2023-02-11T00:33:07.680Z,40.90
2023-02-11T00:38:08.958Z,47.15
2023-02-11T00:43:10.266Z,40.63
2023-02-11T00:48:11.562Z,43.50
2023-02-11T00:53:12.879Z,42.10
2023-02-11T00:58:14.162Z,40.03
2023-02-11T01:03:15.646Z,40.72
2023-02-11T01:08:16.941Z,37.28
2023-02-11T01:13:18.212Z,38.47
2023-02-11T01:18:19.870Z,39.75
2023-02-11T01:23:21.617Z,37.70
2023-02-11T01:28:24.352Z,41.55
2023-02-11T01:33:25.745Z,37.10
2023-02-11T01:38:27.011Z,30.30
2023-02-11T01:43:31.043Z,39.55
2023-02-11T01:48:38.172Z,34.07
2023-02-11T01:53:58.455Z,33.53
2023-02-11T01:59:02.721Z,32.78
2023-02-11T02:04:05.287Z,31.27
2023-02-11T02:09:09.149Z,31.00
2023-02-11T02:14:10.467Z,31.07
2023-02-11T02:19:30.677Z,32.53
2023-02-11T02:24:56.713Z,30.73
2023-02-11T02:29:57.943Z,32.53
2023-02-11T02:35:10.509Z,32.55
2023-02-11T02:40:14.839Z,28.80
2023-02-11T02:45:16.465Z,31.23
2023-02-11T02:50:19.580Z,29.60
2023-02-11T02:55:44.265Z,28.50
2023-02-11T03:00:48.366Z,28.65
2023-02-11T03:05:54.463Z,27.50
2023-02-11T03:10:56.674Z,24.73
2023-02-11T03:15:58.666Z,25.70
2023-02-11T03:21:00.615Z,26.53
2023-02-11T03:26:10.700Z,27.10
2023-02-11T03:31:32.605Z,25.40
2023-02-11T03:36:47.207Z,23.77
2023-02-11T03:41:49.316Z,22.80
2023-02-11T03:46:52.289Z,29.33
2023-02-11T03:51:54.829Z,28.35
2023-02-11T03:56:57.678Z,25.83
2023-02-11T04:01:59.572Z,23.08
2023-02-11T04:07:00.862Z,21.45
2023-02-11T04:12:02.186Z,22.17
2023-02-11T04:17:03.500Z,23.20
2023-02-11T04:22:04.899Z,20.47
2023-02-11T04:27:06.216Z,26.25
2023-02-11T04:32:07.613Z,29.20
2023-02-11T04:37:08.932Z,23.10
2023-02-11T04:42:10.222Z,21.40
2023-02-11T04:47:13.453Z,22.43
2023-02-11T04:52:14.736Z,27.60
2023-02-11T04:57:15.991Z,19.98
2023-02-11T05:02:17.334Z,18.57
2023-02-11T05:07:18.622Z,20.02
2023-02-11T05:12:19.913Z,19.23
2023-02-11T05:17:21.195Z,21.80
2023-02-11T05:22:22.491Z,21.02
2023-02-11T05:27:23.756Z,16.57
2023-02-11T05:32:25.079Z,17.67
2023-02-11T05:37:26.452Z,22.33
2023-02-11T05:42:27.819Z,17.70
2023-02-11T05:47:29.172Z,18.88
2023-02-11T05:52:30.458Z,17.87
2023-02-11T05:57:31.779Z,16.75
2023-02-11T06:02:33.722Z,19.47
2023-02-11T06:07:35.149Z,21.17
2023-02-11T06:12:36.944Z,20.85
2023-02-11T06:17:38.279Z,17.17
2023-02-11T06:22:39.593Z,22.05
2023-02-11T06:27:41.096Z,17.77
2023-02-11T06:32:44.841Z,19.55
2023-02-11T06:37:47.888Z,22.80
2023-02-11T06:42:49.178Z,19.17
2023-02-11T06:47:51.636Z,23.60
2023-02-11T06:52:52.922Z,24.23
2023-02-11T06:57:54.190Z,34.78
2023-02-11T07:02:55.495Z,28.55
2023-02-11T07:07:56.977Z,30.30
2023-02-11T07:12:58.893Z,23.67
2023-02-11T07:18:00.251Z,24.67
2023-02-11T07:23:01.552Z,23.80
2023-02-11T07:28:03.618Z,26.85
2023-02-11T07:33:04.901Z,32.00
2023-02-11T07:38:06.147Z,35.72
2023-02-11T07:43:07.551Z,36.13
2023-02-11T07:48:08.848Z,28.50
2023-02-11T07:53:10.188Z,37.63
2023-02-11T07:58:11.490Z,56.07
2023-02-11T08:03:12.775Z,51.83
2023-02-11T08:08:14.072Z,54.33
2023-02-11T08:13:15.362Z,35.67
2023-02-11T08:18:16.607Z,31.40
2023-02-11T08:23:17.897Z,45.70
2023-02-11T08:28:19.201Z,43.22
2023-02-11T08:33:20.482Z,34.20
2023-02-11T08:38:21.735Z,32.17
2023-02-11T08:43:23.539Z,37.45
2023-02-11T08:48:24.869Z,31.73
2023-02-11T08:53:26.491Z,46.65
2023-02-11T08:58:27.798Z,36.47
2023-02-11T09:03:29.699Z,31.35
2023-02-11T09:08:30.989Z,26.92
2023-02-11T09:13:32.695Z,20.20
2023-02-11T09:18:34.371Z,17.27
2023-02-11T09:23:35.783Z,21.97
2023-02-11T09:28:37.132Z,14.60
2023-02-11T09:33:39.477Z,13.00
2023-02-11T09:38:40.761Z,15.07
2023-02-11T09:43:46.084Z,19.02
2023-02-11T09:48:49.056Z,12.30
2023-02-11T09:53:54.178Z,23.20
2023-02-11T09:58:55.471Z,20.70
2023-02-11T10:04:02.971Z,16.20
2023-02-11T10:09:04.322Z,14.10
2023-02-11T10:14:24.461Z,16.57
2023-02-11T10:19:50.480Z,20.45
2023-02-11T10:24:58.296Z,16.98
2023-02-11T10:30:15.986Z,16.30
2023-02-11T10:35:19.427Z,17.25
2023-02-11T10:40:28.043Z,20.10
2023-02-11T10:45:39.876Z,16.15
2023-02-11T10:50:41.131Z,14.02
2023-02-11T10:55:52.764Z,17.50
2023-02-11T11:00:55.544Z,20.50
2023-02-11T11:06:05.370Z,21.87
2023-02-11T11:11:10.755Z,15.30
2023-02-11T11:16:12.044Z,26.65
2023-02-11T11:21:21.636Z,18.50
2023-02-11T11:26:23.784Z,24.30
2023-02-11T11:31:28.489Z,14.60
2023-02-11T11:36:34.974Z,20.50
2023-02-11T11:41:36.268Z,30.95
2023-02-11T11:46:41.011Z,36.90
2023-02-11T11:51:44.605Z,14.82
2023-02-11T11:56:50.967Z,19.47
2023-02-11T12:02:08.664Z,23.48
2023-02-11T12:07:25.791Z,18.25
2023-02-11T12:12:35.836Z,54.07
2023-02-11T12:17:46.402Z,54.78
2023-02-11T12:22:47.700Z,27.40
2023-02-11T12:28:01.445Z,23.05
2023-02-11T12:33:08.739Z,25.65
2023-02-11T12:38:21.573Z,89.37
2023-02-11T12:43:26.514Z,29.80
2023-02-11T12:48:27.811Z,21.13
2023-02-11T12:53:37.644Z,29.00
2023-02-11T12:58:47.075Z,20.17
2023-02-11T13:03:52.381Z,20.17
2023-02-11T13:08:55.871Z,20.48
2023-02-11T13:14:00.674Z,20.43
2023-02-11T13:19:03.213Z,34.63
2023-02-11T13:24:19.377Z,23.05
2023-02-11T13:29:31.587Z,21.13
2023-02-11T13:34:41.902Z,22.70
2023-02-11T13:39:43.183Z,26.83
2023-02-11T13:44:44.583Z,21.17
2023-02-11T13:49:51.634Z,20.38
2023-02-11T13:54:54.801Z,23.47
2023-02-11T13:59:57.480Z,23.42
2023-02-11T14:05:20.350Z,48.63
2023-02-11T14:10:40.345Z,26.35
2023-02-11T14:15:41.626Z,30.38
2023-02-11T14:20:44.036Z,22.63
2023-02-11T14:25:52.513Z,31.90
2023-02-11T14:31:23.289Z,28.60
2023-02-11T14:36:36.866Z,25.20
2023-02-11T14:41:42.860Z,25.38
2023-02-11T14:46:46.344Z,23.27
2023-02-11T14:51:47.683Z,23.90
2023-02-11T14:57:07.010Z,23.17
2023-02-11T15:02:26.102Z,23.42
2023-02-11T15:07:27.607Z,32.72
2023-02-11T15:12:29.060Z,22.33
2023-02-11T15:17:31.786Z,25.88
2023-02-11T15:22:36.491Z,27.57
2023-02-11T15:27:39.196Z,24.67
2023-02-11T15:32:43.617Z,24.13
2023-02-11T15:37:45.077Z,22.47
2023-02-11T15:42:58.504Z,30.58
2023-02-11T15:48:05.532Z,35.57
2023-02-11T15:53:25.296Z,34.50
2023-02-11T15:58:26.732Z,24.80
2023-02-11T16:03:32.331Z,27.37
2023-02-11T16:08:35.420Z,40.90
2023-02-11T16:13:46.834Z,91.10
2023-02-11T16:19:04.747Z,46.08
2023-02-11T16:24:07.939Z,36.42
2023-02-11T16:29:22.527Z,33.90
2023-02-11T16:34:24.953Z,29.05
2023-02-11T16:39:26.245Z,46.10
2023-02-11T16:44:27.721Z,35.92
2023-02-11T16:49:40.722Z,39.00
2023-02-11T16:54:42.396Z,40.87
2023-02-11T16:59:44.092Z,41.13
2023-02-11T17:04:45.719Z,42.87
2023-02-11T17:09:47.049Z,41.30
2023-02-11T17:14:48.494Z,38.72
2023-02-11T17:19:51.062Z,36.13
2023-02-11T17:24:52.386Z,45.45
2023-02-11T17:29:53.712Z,70.70
2023-02-11T17:34:54.991Z,49.42
2023-02-11T17:39:56.285Z,36.75
2023-02-11T17:44:57.576Z,28.33
2023-02-11T17:49:59.105Z,28.10
2023-02-11T17:55:00.488Z,32.67
2023-02-11T18:00:01.908Z,26.88
2023-02-11T18:05:03.574Z,28.30
2023-02-11T18:10:05.897Z,29.37
2023-02-11T18:15:07.216Z,34.28
2023-02-11T18:20:08.908Z,31.13
2023-02-11T18:25:12.192Z,35.38
2023-02-11T18:30:17.521Z,31.77
2023-02-11T18:35:20.059Z,35.77
2023-02-11T18:40:21.460Z,36.83
2023-02-11T18:45:23.907Z,35.27
2023-02-11T18:50:25.163Z,38.35
2023-02-11T18:55:26.513Z,54.83
2023-02-11T19:00:27.822Z,36.67
2023-02-11T19:05:33.164Z,40.00
2023-02-11T19:10:34.754Z,46.70
2023-02-11T19:15:40.683Z,32.72
2023-02-11T19:20:42.899Z,33.15
2023-02-11T19:25:45.511Z,32.70
2023-02-11T19:30:46.897Z,28.70
2023-02-11T19:35:48.286Z,43.97
2023-02-11T19:40:58.769Z,55.05
2023-02-11T19:46:03.523Z,54.15
2023-02-11T19:51:11.406Z,38.30
2023-02-11T19:56:15.271Z,32.05
2023-02-11T20:01:19.365Z,28.30
2023-02-11T20:06:25.505Z,32.28
2023-02-11T20:11:28.309Z,31.83
2023-02-11T20:16:46.399Z,34.93
2023-02-11T20:21:50.333Z,37.10
2023-02-11T20:26:55.379Z,35.60
2023-02-11T20:31:57.157Z,33.97
2023-02-11T20:36:59.345Z,40.92
2023-02-11T20:42:00.698Z,37.50
2023-02-11T20:47:02.195Z,35.63
2023-02-11T20:52:03.513Z,35.30
2023-02-11T20:57:04.896Z,36.42
2023-02-11T21:02:06.920Z,38.40
2023-02-11T21:07:11.097Z,39.37
2023-02-11T21:12:13.086Z,40.40
2023-02-11T21:17:15.045Z,39.00
2023-02-11T21:22:16.352Z,44.38
2023-02-11T21:27:20.036Z,39.00
2023-02-11T21:32:21.331Z,36.13
2023-02-11T21:37:23.924Z,40.25
2023-02-11T21:42:25.328Z,51.37
2023-02-11T21:47:26.627Z,37.72
2023-02-11T21:52:27.896Z,45.20
2023-02-11T21:57:29.464Z,42.50
2023-02-11T22:02:30.762Z,47.65
2023-02-11T22:07:34.533Z,45.83
2023-02-11T22:12:35.845Z,40.80
2023-02-11T22:17:37.175Z,61.47
2023-02-11T22:22:38.481Z,48.27
2023-02-11T22:27:40.886Z,46.92
2023-02-11T22:32:42.538Z,51.83
2023-02-11T22:37:43.800Z,46.88
2023-02-11T22:42:45.044Z,46.20
2023-02-11T22:47:46.356Z,55.70
2023-02-11T22:52:47.660Z,53.10
2023-02-11T22:57:49.023Z,52.80
2023-02-11T23:02:50.951Z,43.35
2023-02-11T23:07:52.458Z,43.15
2023-02-11T23:12:53.787Z,45.33
2023-02-11T23:17:55.144Z,40.85
2023-02-11T23:22:56.464Z,42.40
2023-02-11T23:27:57.913Z,46.67
2023-02-11T23:32:59.294Z,46.67
2023-02-11T23:38:00.680Z,38.57
2023-02-11T23:43:02.009Z,41.85
2023-02-11T23:48:03.382Z,50.33
2023-02-11T23:53:04.697Z,44.28
2023-02-11T23:58:06.086Z,38.83
